createdAt,value
2018-03-24T00:00:16.318Z,22.67
2018-03-24T00:02:45.820Z,20.90
2018-03-24T00:05:15.311Z,19.10
2018-03-24T00:07:44.785Z,18.30
2018-03-24T00:10:14.335Z,17.80
2018-03-24T00:12:43.758Z,22.23
2018-03-24T00:15:13.019Z,19.20
2018-03-24T00:17:42.276Z,21.07
2018-03-24T00:20:11.690Z,18.27
2018-03-24T00:22:41.733Z,19.27
2018-03-24T00:25:10.981Z,20.33
2018-03-24T00:27:40.249Z,24.03
2018-03-24T00:30:09.835Z,24.93
2018-03-24T00:32:39.566Z,17.37
2018-03-24T00:35:08.846Z,20.10
2018-03-24T00:37:38.917Z,17.57
2018-03-24T00:40:08.353Z,20.27
2018-03-24T00:42:37.634Z,22.10
2018-03-24T00:45:08.509Z,21.80
2018-03-24T00:47:37.819Z,18.00
2018-03-24T00:50:07.851Z,22.37
2018-03-24T00:52:37.187Z,20.60
2018-03-24T00:55:06.434Z,19.47
2018-03-24T00:57:35.710Z,19.80
2018-03-24T01:00:05.082Z,20.40
2018-03-24T01:02:34.362Z,27.37
2018-03-24T01:05:03.643Z,23.20
2018-03-24T01:07:32.876Z,18.43
2018-03-24T01:10:02.128Z,26.33
2018-03-24T01:12:32.150Z,24.60
2018-03-24T01:15:01.416Z,22.80
2018-03-24T01:17:30.699Z,30.03
2018-03-24T01:19:59.942Z,20.67
2018-03-24T01:22:29.979Z,27.70
2018-03-24T01:24:59.233Z,30.03
2018-03-24T01:27:28.577Z,28.00
2018-03-24T01:29:57.814Z,36.83
2018-03-24T01:32:27.080Z,32.23
2018-03-24T01:34:57.095Z,35.17
2018-03-24T01:37:26.379Z,32.77
2018-03-24T01:39:55.641Z,34.40
2018-03-24T01:42:24.892Z,31.40
2018-03-24T01:44:54.511Z,27.30
2018-03-24T01:47:23.810Z,32.27
2018-03-24T01:49:53.123Z,33.10
2018-03-24T01:52:22.595Z,27.63
2018-03-24T01:54:52.013Z,40.83
2018-03-24T01:57:22.083Z,26.40
2018-03-24T01:59:51.344Z,31.77
2018-03-24T02:02:20.606Z,31.83
2018-03-24T02:04:49.848Z,35.77
2018-03-24T02:07:19.441Z,31.90
2018-03-24T02:09:48.712Z,40.77
2018-03-24T02:12:17.963Z,37.33
2018-03-24T02:14:47.243Z,39.10
2018-03-24T02:17:17.246Z,29.07
2018-03-24T02:19:46.531Z,26.53
2018-03-24T02:22:15.974Z,34.03
2018-03-24T02:24:52.094Z,33.00
2018-03-24T02:27:21.359Z,31.60
2018-03-24T02:29:50.637Z,34.20
2018-03-24T02:32:20.708Z,36.53
2018-03-24T02:34:49.966Z,36.00
2018-03-24T02:37:19.218Z,35.83
2018-03-24T02:39:48.473Z,38.60
2018-03-24T02:42:17.799Z,37.37
2018-03-24T02:44:47.033Z,28.73
2018-03-24T02:47:16.375Z,36.70
2018-03-24T02:49:45.641Z,30.10
2018-03-24T02:52:14.902Z,45.93
2018-03-24T02:54:44.158Z,34.17
2018-03-24T02:57:13.413Z,33.33
2018-03-24T02:59:42.755Z,44.07
2018-03-24T03:02:12.048Z,35.63
2018-03-24T03:04:41.343Z,42.00
2018-03-24T03:07:10.591Z,41.23
2018-03-24T03:09:40.088Z,40.20
2018-03-24T03:12:09.389Z,35.87
2018-03-24T03:14:38.682Z,35.23
2018-03-24T03:17:08.699Z,45.23
2018-03-24T03:19:38.090Z,39.47
2018-03-24T03:22:08.133Z,36.70
2018-03-24T03:24:37.410Z,39.37
2018-03-24T03:27:06.775Z,42.47
2018-03-24T03:29:36.102Z,38.03
2018-03-24T03:32:17.046Z,37.90
2018-03-24T03:34:46.303Z,38.57
2018-03-24T03:37:16.522Z,47.13
2018-03-24T03:39:46.534Z,38.53
2018-03-24T03:42:15.818Z,49.13
2018-03-24T03:44:45.838Z,34.47
2018-03-24T03:47:15.110Z,46.60
2018-03-24T03:49:44.389Z,35.47
2018-03-24T03:52:13.823Z,60.37
2018-03-24T03:54:43.077Z,39.47
2018-03-24T03:57:12.334Z,42.23
2018-03-24T03:59:41.810Z,52.47
2018-03-24T04:02:11.059Z,40.77
2018-03-24T04:04:40.330Z,38.67
2018-03-24T04:07:09.630Z,37.67
2018-03-24T04:09:38.897Z,41.53
2018-03-24T04:12:08.181Z,37.70
2018-03-24T04:14:37.582Z,48.13
2018-03-24T04:17:06.843Z,37.30
2018-03-24T04:19:36.111Z,51.47
2018-03-24T04:22:05.351Z,54.27
2018-03-24T04:24:34.640Z,44.07
2018-03-24T04:27:03.920Z,45.33
2018-03-24T04:29:33.152Z,39.20
2018-03-24T04:32:02.419Z,42.50
2018-03-24T04:34:31.697Z,39.23
2018-03-24T04:37:01.781Z,42.33
2018-03-24T04:39:31.021Z,42.20
2018-03-24T04:42:00.293Z,38.83
2018-03-24T04:44:29.575Z,44.20
2018-03-24T04:46:58.841Z,52.60
2018-03-24T04:49:28.198Z,41.93
2018-03-24T04:51:57.474Z,42.33
2018-03-24T04:54:26.899Z,39.67
2018-03-24T04:56:56.142Z,42.13
2018-03-24T04:59:26.333Z,39.67
2018-03-24T05:01:56.378Z,44.80
2018-03-24T05:04:25.655Z,39.77
2018-03-24T05:06:54.905Z,45.00
2018-03-24T05:09:24.190Z,53.17
2018-03-24T05:11:53.519Z,40.23
2018-03-24T05:14:22.774Z,34.47
2018-03-24T05:16:52.016Z,38.87
2018-03-24T05:19:21.358Z,48.43
2018-03-24T05:21:51.390Z,35.50
2018-03-24T05:24:20.654Z,43.63
2018-03-24T05:26:49.924Z,34.73
2018-03-24T05:29:19.182Z,37.93
2018-03-24T05:31:49.226Z,35.27
2018-03-24T05:34:18.466Z,42.13
2018-03-24T05:36:47.740Z,38.23
2018-03-24T05:39:17.000Z,31.63
2018-03-24T05:41:47.034Z,39.77
2018-03-24T05:44:16.289Z,43.23
2018-03-24T05:46:45.573Z,43.57
2018-03-24T05:49:15.051Z,45.33
2018-03-24T05:51:44.326Z,37.03
2018-03-24T05:54:14.383Z,32.50
2018-03-24T05:56:43.653Z,39.93
2018-03-24T05:59:12.906Z,33.73
2018-03-24T06:01:42.398Z,35.33
2018-03-24T06:04:11.751Z,43.07
2018-03-24T06:06:40.969Z,40.67
2018-03-24T06:09:10.255Z,36.07
2018-03-24T06:11:40.279Z,41.87
2018-03-24T06:14:09.557Z,27.97
2018-03-24T06:16:38.978Z,39.47
2018-03-24T06:19:09.112Z,34.13
2018-03-24T06:21:38.375Z,35.43
2018-03-24T06:24:07.836Z,35.33
2018-03-24T06:26:37.089Z,32.77
2018-03-24T06:29:07.131Z,34.97
2018-03-24T06:31:39.019Z,34.43
2018-03-24T06:34:08.553Z,28.37
2018-03-24T06:39:38.736Z,32.93
2018-03-24T06:42:07.963Z,28.73
2018-03-24T06:44:37.211Z,30.47
2018-03-24T06:47:06.459Z,37.33
2018-03-24T06:49:35.718Z,28.53
2018-03-24T06:52:04.980Z,37.87
2018-03-24T06:54:34.418Z,31.60
2018-03-24T06:57:03.769Z,25.63
2018-03-24T06:59:33.022Z,33.00
2018-03-24T07:02:02.355Z,31.70
2018-03-24T07:04:31.621Z,37.13
2018-03-24T07:07:00.889Z,32.27
2018-03-24T07:09:30.930Z,37.83
2018-03-24T07:12:00.215Z,30.93
2018-03-24T07:14:29.494Z,27.50
2018-03-24T07:16:58.779Z,31.67
2018-03-24T07:19:28.055Z,38.53
2018-03-24T07:21:57.323Z,35.60
2018-03-24T07:24:26.621Z,37.27
2018-03-24T07:26:55.883Z,33.27
2018-03-24T07:29:25.177Z,36.63
2018-03-24T07:31:55.262Z,36.20
2018-03-24T07:34:24.535Z,37.67
2018-03-24T07:36:53.826Z,40.60
2018-03-24T07:39:23.108Z,35.60
2018-03-24T07:41:52.370Z,34.57
2018-03-24T07:44:21.773Z,37.20
2018-03-24T07:46:51.030Z,31.53
2018-03-24T07:49:20.318Z,33.97
2018-03-24T07:51:49.857Z,40.73
2018-03-24T07:54:19.135Z,42.90
2018-03-24T07:56:48.431Z,34.80
2018-03-24T07:59:17.737Z,36.10
2018-03-24T08:01:47.009Z,35.20
2018-03-24T08:04:16.288Z,33.97
2018-03-24T08:06:45.551Z,33.03
2018-03-24T08:09:14.819Z,35.77
2018-03-24T08:11:44.869Z,36.03
2018-03-24T08:14:14.149Z,31.00
2018-03-24T08:16:43.566Z,31.83
2018-03-24T08:19:12.849Z,39.33
2018-03-24T08:21:42.163Z,36.17
2018-03-24T08:24:11.429Z,42.53
2018-03-24T08:26:40.697Z,34.00
2018-03-24T08:29:10.083Z,33.80
2018-03-24T08:31:39.667Z,34.43
2018-03-24T08:34:09.706Z,35.40
2018-03-24T08:36:38.984Z,34.50
2018-03-24T08:39:09.533Z,32.80
2018-03-24T08:41:38.808Z,38.30
2018-03-24T08:44:09.161Z,37.80
2018-03-24T08:46:38.553Z,34.00
2018-03-24T08:49:07.883Z,35.03
2018-03-24T08:51:37.230Z,34.63
2018-03-24T08:54:06.522Z,37.00
2018-03-24T08:56:36.037Z,39.87
2018-03-24T08:59:05.412Z,35.43
2018-03-24T09:01:34.735Z,35.27
2018-03-24T09:04:03.995Z,33.73
2018-03-24T09:06:33.341Z,36.40
2018-03-24T09:09:02.693Z,33.60
2018-03-24T09:11:32.023Z,31.43
2018-03-24T09:14:01.301Z,32.33
2018-03-24T09:16:30.585Z,34.27
2018-03-24T09:18:59.919Z,31.20
2018-03-24T09:21:29.267Z,25.40
2018-03-24T09:23:58.610Z,24.50
2018-03-24T09:26:28.657Z,26.70
2018-03-24T09:28:58.086Z,29.20
2018-03-24T09:31:28.037Z,29.77
2018-03-24T09:33:57.326Z,25.73
2018-03-24T09:36:28.057Z,33.30
2018-03-24T09:38:57.562Z,26.80
2018-03-24T09:41:27.663Z,25.20
2018-03-24T09:43:56.983Z,23.27
2018-03-24T09:46:27.019Z,22.17
2018-03-24T09:48:56.297Z,19.13
2018-03-24T09:51:26.339Z,32.93
2018-03-24T09:53:55.618Z,21.70
2018-03-24T09:56:25.039Z,21.97
2018-03-24T09:58:54.377Z,22.13
2018-03-24T10:01:23.779Z,18.43
2018-03-24T10:03:53.224Z,23.13
2018-03-24T10:06:22.471Z,23.90
2018-03-24T10:08:51.730Z,25.47
2018-03-24T10:11:21.783Z,29.63
2018-03-24T10:13:51.243Z,24.53
2018-03-24T10:16:20.498Z,24.20
2018-03-24T10:18:49.806Z,18.13
2018-03-24T10:21:46.566Z,21.80
2018-03-24T10:24:23.504Z,26.50
2018-03-24T10:26:53.504Z,24.73
2018-03-24T10:29:23.594Z,24.57
2018-03-24T10:31:52.843Z,20.17
2018-03-24T10:34:22.133Z,23.33
2018-03-24T10:36:51.393Z,25.60
2018-03-24T10:39:20.682Z,21.67
2018-03-24T10:41:49.945Z,19.90
2018-03-24T10:44:19.261Z,21.33
2018-03-24T10:46:48.914Z,19.87
2018-03-24T10:49:18.233Z,22.00
2018-03-24T10:51:47.502Z,22.20
2018-03-24T10:54:16.794Z,27.30
2018-03-24T10:56:46.085Z,22.67
2018-03-24T10:59:15.552Z,19.40
2018-03-24T11:01:44.844Z,20.97
2018-03-24T11:04:14.157Z,21.00
2018-03-24T11:06:43.421Z,15.90
2018-03-24T11:09:12.863Z,12.30
2018-03-24T11:11:42.926Z,19.60
2018-03-24T11:14:12.176Z,16.97
2018-03-24T11:16:41.446Z,13.93
2018-03-24T11:19:10.889Z,14.13
2018-03-24T11:21:40.935Z,12.97
2018-03-24T11:24:10.191Z,14.40
2018-03-24T11:26:39.635Z,18.80
2018-03-24T11:29:08.935Z,15.90
2018-03-24T11:31:38.376Z,18.63
2018-03-24T11:34:07.646Z,15.53
2018-03-24T11:36:37.013Z,12.83
2018-03-24T11:39:06.292Z,13.23
2018-03-24T11:41:35.559Z,15.07
2018-03-24T11:44:04.839Z,18.50
2018-03-24T11:46:34.093Z,17.70
2018-03-24T11:49:03.466Z,13.73
2018-03-24T11:51:32.726Z,14.77
2018-03-24T11:54:02.759Z,18.80
2018-03-24T11:56:32.052Z,16.43
2018-03-24T11:59:02.071Z,17.50
2018-03-24T12:01:31.345Z,19.17
2018-03-24T12:04:03.679Z,19.33
2018-03-24T12:06:33.287Z,20.53
2018-03-24T12:09:02.538Z,16.27
2018-03-24T12:11:31.859Z,13.47
2018-03-24T12:14:01.114Z,17.13
2018-03-24T12:16:30.683Z,22.53
2018-03-24T12:18:59.914Z,16.13
2018-03-24T12:21:29.210Z,17.00
2018-03-24T12:23:58.542Z,12.77
2018-03-24T12:26:27.810Z,10.60
2018-03-24T12:28:57.088Z,14.30
2018-03-24T12:31:27.082Z,16.00
2018-03-24T12:33:56.348Z,14.80
2018-03-24T12:36:25.606Z,13.40
2018-03-24T12:38:54.902Z,16.27
2018-03-24T12:41:24.164Z,14.47
2018-03-24T12:43:53.662Z,17.50
2018-03-24T12:46:23.192Z,13.50
2018-03-24T12:48:52.492Z,13.87
2018-03-24T12:51:22.792Z,20.87
2018-03-24T12:53:51.992Z,15.17
2018-03-24T12:56:21.273Z,12.97
2018-03-24T12:58:50.524Z,12.60
2018-03-24T13:01:20.610Z,20.83
2018-03-24T13:03:49.886Z,17.73
2018-03-24T13:06:19.161Z,12.43
2018-03-24T13:08:48.503Z,11.77
2018-03-24T13:11:18.529Z,14.60
2018-03-24T13:13:47.811Z,12.57
2018-03-24T13:16:17.130Z,17.77
2018-03-24T13:18:46.415Z,15.03
2018-03-24T13:21:15.999Z,16.00
2018-03-24T13:23:45.447Z,15.00
2018-03-24T13:26:14.708Z,15.50
2018-03-24T13:28:44.228Z,15.07
2018-03-24T13:31:13.557Z,13.13
2018-03-24T13:33:42.936Z,15.70
2018-03-24T13:36:12.478Z,15.73
2018-03-24T13:38:41.828Z,15.20
2018-03-24T13:41:11.097Z,13.87
2018-03-24T13:43:40.355Z,17.80
2018-03-24T13:46:09.631Z,15.30
2018-03-24T13:48:39.011Z,21.10
2018-03-24T13:51:09.048Z,14.60
2018-03-24T13:53:38.344Z,13.67
2018-03-24T13:56:07.614Z,18.30
2018-03-24T13:58:36.881Z,13.30
2018-03-24T14:01:06.162Z,16.20
2018-03-24T14:03:35.498Z,13.40
2018-03-24T14:06:04.797Z,13.40
2018-03-24T14:08:34.079Z,12.53
2018-03-24T14:11:03.399Z,13.60
2018-03-24T14:13:32.841Z,12.17
2018-03-24T14:16:02.301Z,18.17
2018-03-24T14:18:34.423Z,15.43
2018-03-24T14:21:03.768Z,30.17
2018-03-24T14:23:33.159Z,14.07
2018-03-24T14:26:02.517Z,15.17
2018-03-24T14:28:31.775Z,14.57
2018-03-24T14:31:01.126Z,15.60
2018-03-24T14:33:30.445Z,17.60
2018-03-24T14:35:59.783Z,13.10
2018-03-24T14:38:29.282Z,11.97
2018-03-24T14:40:58.547Z,16.00
2018-03-24T14:43:28.571Z,13.80
2018-03-24T14:45:57.844Z,18.33
2018-03-24T14:48:27.090Z,12.57
2018-03-24T14:50:57.134Z,13.57
2018-03-24T14:53:26.414Z,16.20
2018-03-24T14:55:55.715Z,20.30
2018-03-24T14:58:25.013Z,16.60
2018-03-24T15:00:54.842Z,63.80
2018-03-24T15:03:24.107Z,13.70
2018-03-24T15:05:53.359Z,13.20
2018-03-24T15:08:22.629Z,13.30
2018-03-24T15:10:51.873Z,12.87
2018-03-24T15:13:21.145Z,18.73
2018-03-24T15:15:50.416Z,12.00
2018-03-24T15:18:20.447Z,13.77
2018-03-24T15:20:49.741Z,13.47
2018-03-24T15:23:19.014Z,12.03
2018-03-24T15:25:48.277Z,19.80
2018-03-24T15:28:17.533Z,9.77
2018-03-24T15:31:05.115Z,13.23
2018-03-24T15:33:52.083Z,7.47
2018-03-24T15:36:39.003Z,9.73
2018-03-24T15:39:08.569Z,8.70
2018-03-24T15:41:37.846Z,13.47
2018-03-24T15:44:07.341Z,13.23
2018-03-24T15:46:36.804Z,38.53
2018-03-24T15:49:06.054Z,12.97
2018-03-24T15:51:36.029Z,9.90
2018-03-24T15:54:05.554Z,15.30
2018-03-24T15:56:34.803Z,10.90
2018-03-24T15:59:04.413Z,10.80
2018-03-24T16:01:33.700Z,14.10
2018-03-24T16:04:03.032Z,16.80
2018-03-24T16:06:32.291Z,15.30
2018-03-24T16:09:01.619Z,12.77
2018-03-24T16:11:30.882Z,14.47
2018-03-24T16:14:00.129Z,10.07
2018-03-24T16:16:29.693Z,10.13
2018-03-24T16:18:58.974Z,9.73
2018-03-24T16:21:28.337Z,10.97
2018-03-24T16:23:57.543Z,15.50
2018-03-24T16:26:26.847Z,16.00
2018-03-24T16:28:56.100Z,15.23
2018-03-24T16:31:26.153Z,13.63
2018-03-24T16:33:55.439Z,12.63
2018-03-24T16:36:24.738Z,13.83
2018-03-24T16:38:55.490Z,18.07
2018-03-24T16:41:24.975Z,12.83
2018-03-24T16:43:55.125Z,24.80
2018-03-24T16:46:24.414Z,15.90
2018-03-24T16:48:53.969Z,13.87
2018-03-24T16:51:23.380Z,15.07
2018-03-24T16:53:52.661Z,11.80
2018-03-24T16:56:21.935Z,14.87
2018-03-24T16:58:51.373Z,17.10
2018-03-24T17:01:20.621Z,42.97
2018-03-24T17:03:50.080Z,14.60
2018-03-24T17:06:19.338Z,13.40
2018-03-24T17:08:48.729Z,14.43
2018-03-24T17:11:18.853Z,12.77
2018-03-24T17:13:48.141Z,13.17
2018-03-24T17:16:18.194Z,10.73
2018-03-24T17:18:48.456Z,9.17
2018-03-24T17:21:17.741Z,21.47
2018-03-24T17:23:47.207Z,11.83
2018-03-24T17:26:16.587Z,6.93
2018-03-24T17:28:45.913Z,9.93
2018-03-24T17:31:15.394Z,29.53
2018-03-24T17:33:45.440Z,22.17
2018-03-24T17:36:14.706Z,15.60
2018-03-24T17:38:44.040Z,9.20
2018-03-24T17:41:13.301Z,15.10
2018-03-24T17:43:42.732Z,18.83
2018-03-24T17:46:12.770Z,8.33
2018-03-24T17:48:42.013Z,15.73
2018-03-24T17:51:11.552Z,11.70
2018-03-24T17:53:40.801Z,11.35
2018-03-24T17:56:10.082Z,15.17
2018-03-24T17:58:39.322Z,7.60
2018-03-24T18:01:08.923Z,17.97
2018-03-24T18:03:38.190Z,13.40
2018-03-24T18:06:07.669Z,12.70
2018-03-24T18:08:37.130Z,4.77
2018-03-24T18:11:06.383Z,7.90
2018-03-24T18:13:36.412Z,12.40
2018-03-24T18:16:05.723Z,8.53
2018-03-24T18:18:34.979Z,9.90
2018-03-24T18:21:04.202Z,8.60
2018-03-24T18:23:34.236Z,10.83
2018-03-24T18:26:03.518Z,16.40
2018-03-24T18:28:32.823Z,13.53
2018-03-24T18:31:02.131Z,8.70
2018-03-24T18:33:31.385Z,7.17
2018-03-24T18:36:00.689Z,10.00
2018-03-24T18:38:29.946Z,6.90
2018-03-24T18:40:59.213Z,12.43
2018-03-24T18:43:28.472Z,9.67
2018-03-24T18:45:57.733Z,10.37
2018-03-24T18:48:26.972Z,9.40
2018-03-24T18:50:56.290Z,15.00
2018-03-24T18:53:25.719Z,13.53
2018-03-24T18:55:55.008Z,10.80
2018-03-24T18:58:24.345Z,15.47
2018-03-24T19:00:53.723Z,9.30
2018-03-24T19:03:23.095Z,8.90
2018-03-24T19:05:52.375Z,10.53
2018-03-24T19:08:21.617Z,8.73
2018-03-24T19:10:52.396Z,5.30
2018-03-24T19:13:21.677Z,11.83
2018-03-24T19:15:50.941Z,6.77
2018-03-24T19:18:20.186Z,13.47
2018-03-24T19:20:49.447Z,8.93
2018-03-24T19:23:18.730Z,5.80
2018-03-24T19:25:48.238Z,9.30
2018-03-24T19:28:17.750Z,9.90
2018-03-24T19:30:47.006Z,10.60
2018-03-24T19:33:16.288Z,5.10
2018-03-24T19:35:45.555Z,11.97
2018-03-24T19:38:14.806Z,10.10
2018-03-24T19:40:44.073Z,8.80
2018-03-24T19:43:13.324Z,8.27
2018-03-24T19:45:42.580Z,22.23
2018-03-24T19:48:11.825Z,14.73
2018-03-24T19:50:41.254Z,9.03
2018-03-24T19:53:10.541Z,10.43
2018-03-24T19:55:40.072Z,8.13
2018-03-24T19:58:09.499Z,12.10
2018-03-24T20:00:38.931Z,8.37
2018-03-24T20:03:08.172Z,8.83
2018-03-24T20:05:37.434Z,10.90
2018-03-24T20:08:06.695Z,12.27
2018-03-24T20:10:35.941Z,13.43
2018-03-24T20:13:05.253Z,13.57
2018-03-24T20:15:34.516Z,15.23
2018-03-24T20:18:04.563Z,14.57
2018-03-24T20:20:33.812Z,12.90
2018-03-24T20:23:03.066Z,14.97
2018-03-24T20:25:32.370Z,17.53
2018-03-24T20:28:01.652Z,11.43
2018-03-24T20:30:31.659Z,21.80
2018-03-24T20:33:00.928Z,18.63
2018-03-24T20:35:30.178Z,8.87
2018-03-24T20:38:00.276Z,9.13
2018-03-24T20:40:30.300Z,13.17
2018-03-24T20:42:59.558Z,17.40
2018-03-24T20:45:28.957Z,10.27
2018-03-24T20:47:58.212Z,11.40
2018-03-24T20:50:27.487Z,18.53
2018-03-24T20:52:58.239Z,7.90
2018-03-24T20:55:27.502Z,12.70
2018-03-24T20:57:56.740Z,9.63
2018-03-24T21:00:26.020Z,11.53
2018-03-24T21:02:55.314Z,13.67
2018-03-24T21:05:24.555Z,9.13
2018-03-24T21:07:54.729Z,8.80
2018-03-24T21:10:24.697Z,13.37
2018-03-24T21:12:53.971Z,8.33
2018-03-24T21:15:23.255Z,13.83
2018-03-24T21:17:52.532Z,20.23
2018-03-24T21:20:21.776Z,17.83
2018-03-24T21:22:51.818Z,12.73
2018-03-24T21:25:21.216Z,13.90
2018-03-24T21:27:51.265Z,14.33
2018-03-24T21:30:20.681Z,9.67
2018-03-24T21:32:49.972Z,14.03
2018-03-24T21:35:19.239Z,13.63
2018-03-24T21:37:49.283Z,15.37
2018-03-24T21:40:18.548Z,6.73
2018-03-24T21:42:47.794Z,10.10
2018-03-24T21:45:17.055Z,8.47
2018-03-24T21:47:47.061Z,9.53
2018-03-24T21:50:16.320Z,10.87
2018-03-24T21:52:45.563Z,16.50
2018-03-24T21:55:14.818Z,14.73
2018-03-24T21:57:44.058Z,14.30
2018-03-24T22:00:13.425Z,12.53
2018-03-24T22:02:42.721Z,8.90
2018-03-24T22:05:11.939Z,7.70
2018-03-24T22:07:41.238Z,10.97
2018-03-24T22:10:10.557Z,11.67
2018-03-24T22:12:39.974Z,10.90
2018-03-24T22:15:09.410Z,9.50
2018-03-24T22:17:38.709Z,13.23
2018-03-24T22:20:07.952Z,10.30
2018-03-24T22:22:38.239Z,12.73
2018-03-24T22:25:08.303Z,13.90
2018-03-24T22:27:37.521Z,13.43
2018-03-24T22:30:06.786Z,6.10
2018-03-24T22:32:36.037Z,12.63
2018-03-24T22:35:06.106Z,9.73
2018-03-24T22:37:35.480Z,13.07
2018-03-24T22:40:05.612Z,8.00
2018-03-24T22:42:34.993Z,10.60
2018-03-24T22:45:04.223Z,12.00
2018-03-24T22:47:33.488Z,8.50
2018-03-24T22:50:03.521Z,12.93
2018-03-24T22:52:32.792Z,7.57
2018-03-24T22:55:02.817Z,13.57
2018-03-24T22:57:32.103Z,11.23
2018-03-24T23:00:01.449Z,13.53
2018-03-24T23:02:31.070Z,10.77
2018-03-24T23:05:00.641Z,12.83
2018-03-24T23:07:30.810Z,14.40
2018-03-24T23:10:00.061Z,13.43
2018-03-24T23:12:30.256Z,8.73
2018-03-24T23:14:59.500Z,13.10
2018-03-24T23:17:28.760Z,8.97
2018-03-24T23:19:58.149Z,14.90
2018-03-24T23:22:27.396Z,10.60
2018-03-24T23:24:57.435Z,6.13
2018-03-24T23:27:26.697Z,14.70
2018-03-24T23:29:55.970Z,10.33
2018-03-24T23:32:25.211Z,13.03
2018-03-24T23:34:55.265Z,12.50
2018-03-24T23:37:24.493Z,12.00
2018-03-24T23:39:53.765Z,11.77
2018-03-24T23:42:23.002Z,8.77
2018-03-24T23:44:52.275Z,12.87
2018-03-24T23:47:21.517Z,18.30
2018-03-24T23:49:50.972Z,13.87
2018-03-24T23:52:20.454Z,9.13
2018-03-24T23:54:49.753Z,10.00
2018-03-24T23:57:19.004Z,15.30
2018-03-24T23:59:48.276Z,9.17
